Time;durP1;ratioP1;P1;durP2;ratioP2;P2;SDS_P1;SDS_P2;PMS_P1;PMS_P2;Temp;Humidity;BMP_temperature;BMP_pressure;BME280_temperature;BME280_humidity;BME280_pressure;Samples;Min_cycle;Max_cycle;Signal;HPM_P1;HPM_P2
2021/06/21 00:02:37;;;;;;;6.58;4.80;;;;;;;23.26;52.27;99461.55;1992258;89;30981;-62
2021/06/21 00:05:39;;;;;;;7.45;5.00;;;;;;;23.25;52.25;99461.22;1994649;89;32940;-63
2021/06/21 00:08:41;;;;;;;8.40;5.25;;;;;;;23.21;52.17;99465.67;1992789;89;29535;-62
2021/06/21 00:11:43;;;;;;;6.67;5.42;;;;;;;23.19;52.21;99462.77;2009770;87;27826;-62
2021/06/21 00:14:45;;;;;;;6.47;5.85;;;;;;;23.16;52.32;99454.91;2026254;87;28634;-63
2021/06/21 00:17:47;;;;;;;5.83;5.25;;;;;;;23.12;52.29;99453.06;2014227;87;31272;-62
2021/06/21 00:20:51;;;;;;;8.90;5.37;;;;;;;23.10;52.48;99456.98;2015549;87;33079;-63
2021/06/21 00:23:53;;;;;;;5.58;5.03;;;;;;;23.04;52.53;99449.86;2009195;87;29323;-63
2021/06/21 00:26:55;;;;;;;5.42;4.60;;;;;;;23.01;52.63;99446.61;1999583;87;27628;-62
2021/06/21 00:29:57;;;;;;;7.03;5.22;;;;;;;22.97;52.80;99448.86;1996224;87;28657;-62
2021/06/21 00:32:59;;;;;;;6.95;5.42;;;;;;;22.95;52.85;99440.52;2000824;87;31902;-62
2021/06/21 00:36:01;;;;;;;5.33;4.80;;;;;;;22.90;53.24;99428.23;2000012;87;33106;-62
2021/06/21 00:39:06;;;;;;;6.50;4.53;;;;;;;22.87;53.08;99428.59;2011720;87;29313;-63
2021/06/21 00:42:07;;;;;;;;;;;;;;;22.85;53.28;99429.27;2001029;87;27664;-62
2021/06/21 00:45:12;;;;;;;5.30;4.72;;;;;;;22.82;53.31;99419.23;2008273;87;28798;-62
2021/06/21 00:48:13;;;;;;;;;;;;;;;22.78;53.51;99425.57;1999887;87;31142;-62
2021/06/21 00:51:15;;;;;;;5.55;5.05;;;;;;;22.74;53.58;99425.08;2017283;87;33845;-62
2021/06/21 00:54:17;;;;;;;8.68;5.87;;;;;;;22.70;53.50;99425.09;1987541;88;30598;-62
2021/06/21 00:57:19;;;;;;;6.05;5.42;;;;;;;22.67;53.76;99421.87;1979799;89;27555;-62
2021/06/21 01:00:24;;;;;;;6.25;5.08;;;;;;;22.63;53.81;99424.61;1966262;89;29408;-63
2021/06/21 01:03:26;;;;;;;8.25;4.87;;;;;;;22.61;53.81;99425.64;2016657;87;31862;-62
2021/06/21 01:06:29;;;;;;;8.63;4.67;;;;;;;22.58;54.26;99421.89;1977331;89;32997;-62
2021/06/21 01:09:30;;;;;;;6.85;5.25;;;;;;;22.56;54.16;99434.02;1992863;87;29454;-62
2021/06/21 01:12:50;;;;;;;5.92;5.42;;;;;;;22.53;54.31;99448.02;2000036;87;27567;-62
2021/06/21 01:16:06;;;;;;;7.55;6.20;;;;;;;22.48;54.26;99441.72;1918162;91;29489;-62
2021/06/21 01:19:13;;;;;;;6.78;5.58;;;;;;;22.45;54.70;99444.27;1923848;91;31842;-62
2021/06/21 01:22:28;;;;;;;7.20;5.65;;;;;;;22.43;54.67;99444.12;1891716;91;32914;-62
2021/06/21 01:25:37;;;;;;;6.78;5.78;;;;;;;22.40;54.66;99444.42;1915988;91;30113;-62
2021/06/21 01:29:22;;;;;;;7.20;6.50;;;;;;;22.37;54.85;99440.67;1924269;91;27608;-62
2021/06/21 01:32:53;;;;;;;8.65;6.00;;;;;;;22.34;54.94;99435.06;1911312;91;28765;-62
2021/06/21 01:36:00;;;;;;;7.78;6.03;;;;;;;22.31;55.05;99435.41;1876141;93;31231;-63
2021/06/21 01:39:03;;;;;;;7.05;5.85;;;;;;;22.26;55.19;99435.07;1886534;93;34022;-62
2021/06/21 01:42:14;;;;;;;13.58;5.50;;;;;;;22.23;55.30;99434.08;1924884;91;29550;-62
2021/06/21 01:45:20;;;;;;;6.58;5.83;;;;;;;22.19;55.57;99440.38;1876389;93;27671;-62
2021/06/21 01:48:24;;;;;;;7.65;6.62;;;;;;;22.16;55.54;99446.20;1931461;91;28808;-62
2021/06/21 01:51:31;;;;;;;6.80;6.10;;;;;;;22.12;55.82;99447.03;1940824;89;31906;-62
2021/06/21 01:54:33;;;;;;;7.62;6.87;;;;;;;22.09;55.90;99451.98;1948268;89;33075;-62
2021/06/21 01:57:36;;;;;;;8.95;6.60;;;;;;;22.04;56.03;99452.52;1976235;89;29420;-62
2021/06/21 02:00:39;;;;;;;9.13;6.47;;;;;;;22.02;56.16;99455.92;1975159;89;27536;-62
2021/06/21 02:03:44;;;;;;;12.03;6.37;;;;;;;21.98;56.35;99459.52;1955483;91;28860;-62
2021/06/21 02:06:46;;;;;;;10.08;6.65;;;;;;;21.94;56.50;99466.81;1963518;89;30702;-62
2021/06/21 02:09:49;;;;;;;13.65;7.05;;;;;;;21.90;56.50;99464.95;1993863;89;33903;-62
2021/06/21 02:12:52;;;;;;;8.55;6.58;;;;;;;21.85;56.65;99457.29;1949132;89;29396;-62
2021/06/21 02:15:55;;;;;;;7.58;6.85;;;;;;;21.81;56.84;99445.02;1941462;90;27634;-62
2021/06/21 02:18:57;;;;;;;8.85;6.40;;;;;;;21.77;57.08;99442.80;1958155;91;28767;-62
2021/06/21 02:22:00;;;;;;;10.20;7.00;;;;;;;21.72;57.23;99441.09;1954249;90;31262;-61
2021/06/21 02:25:05;;;;;;;9.48;7.33;;;;;;;21.67;57.32;99443.84;1961123;89;33745;-61
2021/06/21 02:28:07;;;;;;;11.20;6.78;;;;;;;21.64;57.34;99440.08;1957695;90;29399;-61
2021/06/21 02:31:09;;;;;;;8.03;6.85;;;;;;;21.60;57.81;99440.53;1957115;90;27774;-61
2021/06/21 02:34:11;;;;;;;8.73;7.05;;;;;;;21.55;58.16;99439.19;1992951;89;28973;-61
2021/06/21 02:37:13;;;;;;;7.92;7.15;;;;;;;21.51;58.05;99427.44;1980966;89;31167;-61
2021/06/21 02:40:16;;;;;;;8.33;7.53;;;;;;;21.48;58.45;99424.52;1979314;89;33028;-61
2021/06/21 02:43:17;;;;;;;8.30;7.50;;;;;;;21.46;58.57;99427.09;1982861;89;29396;-62
2021/06/21 02:46:19;;;;;;;9.73;7.85;;;;;;;21.43;58.60;99431.50;1997344;89;27857;-65
2021/06/21 02:49:21;;;;;;;12.30;8.35;;;;;;;21.41;58.86;99433.05;1996783;89;28147;-61
2021/06/21 02:52:40;;;;;;;8.68;7.85;;;;;;;21.41;58.95;99441.22;1931665;91;31197;-62
2021/06/21 02:56:09;;;;;;;10.10;7.90;;;;;;;21.40;59.07;99438.16;1957032;90;33048;-62
2021/06/21 02:59:13;;;;;;;9.68;8.25;;;;;;;21.37;59.11;99435.23;1924051;91;29471;-61
2021/06/21 03:02:18;;;;;;;8.38;7.65;;;;;;;21.37;59.07;99437.95;1928402;91;27660;-61
2021/06/21 03:05:20;;;;;;;9.10;8.28;;;;;;;21.39;59.33;99445.45;1972520;89;28694;-61
2021/06/21 03:08:22;;;;;;;11.75;8.13;;;;;;;21.38;59.35;99443.75;1998236;87;31217;-61
2021/06/21 03:11:26;;;;;;;12.10;8.63;;;;;;;21.39;59.38;99446.82;2012490;87;33056;-62
2021/06/21 03:14:28;;;;;;;10.13;8.45;;;;;;;21.41;59.43;99453.48;1984654;89;30172;-64
2021/06/21 03:17:34;;;;;;;9.50;8.60;;;;;;;21.44;59.47;99453.13;1991622;89;27566;-71
2021/06/21 03:20:35;;;;;;;9.58;8.63;;;;;;;21.47;59.58;99450.06;1958904;89;28766;-67
2021/06/21 03:23:37;;;;;;;9.33;8.48;;;;;;;21.50;59.70;99448.38;1977640;89;31074;-64
2021/06/21 03:26:39;;;;;;;9.63;8.63;;;;;;;21.53;59.71;99450.77;1955152;91;32537;-62
2021/06/21 03:29:41;;;;;;;11.60;8.45;;;;;;;21.59;59.62;99451.13;1958976;89;29381;-62
2021/06/21 03:32:43;;;;;;;10.50;9.03;;;;;;;21.65;59.82;99453.19;1975244;88;27725;-62
2021/06/21 03:35:46;;;;;;;13.00;9.90;;;;;;;21.69;59.68;99457.28;1997519;87;28885;-64
2021/06/21 03:38:47;;;;;;;12.35;9.93;;;;;;;21.73;59.75;99459.16;1980283;88;31290;-63
2021/06/21 03:41:49;;;;;;;11.90;9.00;;;;;;;21.79;59.63;99465.30;1991679;87;32942;-62
2021/06/21 03:44:53;;;;;;;9.78;8.78;;;;;;;21.85;59.66;99468.20;1989276;87;30106;-62
2021/06/21 03:47:55;;;;;;;13.20;9.30;;;;;;;21.95;59.74;99478.94;1985011;87;27758;-63
2021/06/21 03:50:58;;;;;;;10.40;8.90;;;;;;;22.00;59.59;99477.92;1981743;89;28654;-63
2021/06/21 03:53:59;;;;;;;12.98;8.75;;;;;;;22.10;59.63;99472.80;1981735;89;31911;-65
2021/06/21 03:57:02;;;;;;;15.58;8.85;;;;;;;22.18;59.52;99475.49;1983003;89;33036;-63
2021/06/21 04:00:11;;;;;;;11.60;8.70;;;;;;;22.26;59.56;99467.31;1985283;89;29384;-64
2021/06/21 04:03:13;;;;;;;9.28;8.25;;;;;;;22.36;59.46;99479.91;1985554;89;27594;-62
2021/06/21 04:06:15;;;;;;;14.28;8.80;;;;;;;22.42;59.33;99477.89;1986327;89;28876;-63
2021/06/21 04:09:16;;;;;;;12.43;9.50;;;;;;;22.50;59.40;99475.16;1991109;89;31158;-62
2021/06/21 04:12:18;;;;;;;11.73;9.18;;;;;;;22.59;59.18;99461.81;1987978;89;33685;-62
2021/06/21 04:15:30;;;;;;;10.90;9.80;;;;;;;22.71;59.19;99466.89;1988765;89;29337;-62
2021/06/21 04:18:32;;;;;;;10.43;8.68;;;;;;;22.81;59.04;99463.95;1988807;89;27608;-62
2021/06/21 04:21:34;;;;;;;11.60;8.55;;;;;;;22.91;58.99;99451.80;1988130;89;28737;-64
2021/06/21 04:24:36;;;;;;;15.05;9.35;;;;;;;23.03;58.99;99460.95;1988180;89;31105;-64
2021/06/21 04:27:38;;;;;;;10.75;8.95;;;;;;;23.12;58.95;99453.06;1988190;89;33684;-63
2021/06/21 04:30:40;;;;;;;15.08;9.83;;;;;;;23.24;58.71;99460.87;1988449;89;29443;-64
2021/06/21 04:33:42;;;;;;;11.83;9.53;;;;;;;23.35;58.54;99450.89;1988682;89;27501;-63
2021/06/21 04:36:44;;;;;;;14.53;10.15;;;;;;;23.48;58.40;99448.44;1992589;87;28734;-63
2021/06/21 04:39:46;;;;;;;12.47;8.90;;;;;;;23.67;58.24;99450.33;1993685;89;31264;-62
2021/06/21 04:42:48;;;;;;;18.23;10.63;;;;;;;23.87;58.00;99453.44;1959656;90;32960;-61
2021/06/21 04:45:49;;;;;;;14.47;9.38;;;;;;;24.11;57.86;99459.74;1994088;89;30334;-63
2021/06/21 04:48:52;;;;;;;20.80;10.32;;;;;;;24.45;57.56;99462.48;1959364;90;27587;-61
2021/06/21 04:51:58;;;;;;;9.70;8.38;;;;;;;25.24;57.27;99450.08;1990617;89;28738;-61
2021/06/21 04:55:10;;;;;;;10.32;8.88;;;;;;;26.22;56.23;99453.70;1990689;88;31658;-61
2021/06/21 04:58:13;;;;;;;13.70;8.25;;;;;;;27.25;54.97;99463.70;2014808;87;33900;-62
2021/06/21 05:01:15;;;;;;;10.60;8.13;;;;;;;28.12;53.42;99452.87;2021901;87;30213;-62
2021/06/21 05:04:21;;;;;;;16.25;8.33;;;;;;;28.94;51.90;99447.03;1995280;88;27742;-61
2021/06/21 05:07:23;;;;;;;8.40;7.55;;;;;;;29.73;51.14;99430.80;1987967;88;28718;-63
2021/06/21 05:10:26;;;;;;;10.75;8.85;;;;;;;30.44;48.97;99423.70;1974671;89;31221;-62
2021/06/21 05:13:27;;;;;;;10.85;8.78;;;;;;;30.71;47.46;99423.43;1956393;89;33121;-61
2021/06/21 05:16:29;;;;;;;12.37;7.62;;;;;;;31.19;46.87;99421.80;1960770;89;29338;-62
2021/06/21 05:19:31;;;;;;;13.35;9.25;;;;;;;31.58;43.88;99418.69;1956894;91;27591;-62
2021/06/21 05:22:33;;;;;;;11.73;7.90;;;;;;;31.86;44.10;99421.35;1955806;91;28794;-62
2021/06/21 05:25:36;;;;;;;12.63;8.55;;;;;;;32.34;43.48;99423.66;1957246;89;30992;-62
2021/06/21 05:28:39;;;;;;;9.35;8.28;;;;;;;32.68;42.95;99421.91;1962388;89;33993;-62
2021/06/21 05:31:41;;;;;;;10.30;8.65;;;;;;;32.96;42.30;99401.43;1956017;90;29365;-62
2021/06/21 05:34:42;;;;;;;13.03;7.97;;;;;;;33.22;41.65;99401.39;1972845;89;27593;-62
2021/06/21 05:37:45;;;;;;;8.50;7.58;;;;;;;33.50;40.06;99391.93;1952869;90;29399;-61
2021/06/21 05:40:46;;;;;;;8.90;8.10;;;;;;;33.59;39.98;99387.11;1956846;89;31736;-62
2021/06/21 05:43:48;;;;;;;10.60;7.58;;;;;;;33.63;38.64;99398.02;1979977;89;33189;-61
2021/06/21 05:46:50;;;;;;;10.35;8.38;;;;;;;33.73;38.85;99401.52;1967693;89;29252;-62
2021/06/21 05:49:52;;;;;;;9.18;7.92;;;;;;;34.00;38.76;99400.86;1981852;89;27566;-61
2021/06/21 05:52:53;;;;;;;8.40;7.65;;;;;;;34.39;38.76;99406.99;1952461;90;29473;-62
2021/06/21 05:55:57;;;;;;;9.03;8.15;;;;;;;35.03;38.73;99410.39;1965370;89;31994;-62
2021/06/21 05:58:58;;;;;;;15.95;8.48;;;;;;;35.69;37.23;99412.20;1983400;89;33037;-61
2021/06/21 06:02:00;;;;;;;13.95;8.10;;;;;;;36.20;36.98;99413.17;1966442;89;29314;-64
2021/06/21 06:05:06;;;;;;;14.07;8.43;;;;;;;36.70;35.99;99408.75;1972004;89;27626;-65
2021/06/21 06:08:08;;;;;;;12.73;8.40;;;;;;;37.09;35.11;99408.38;2009534;87;28539;-63
2021/06/21 06:11:10;;;;;;;11.28;8.25;;;;;;;37.29;34.44;99409.55;1991546;89;31126;-63
2021/06/21 06:14:11;;;;;;;18.23;8.60;;;;;;;37.53;33.82;99405.70;1982810;89;33836;-63
2021/06/21 06:17:13;;;;;;;9.48;8.03;;;;;;;37.79;33.45;99404.31;1982884;89;29398;-62
2021/06/21 06:20:15;;;;;;;15.08;8.88;;;;;;;38.02;33.22;99402.09;1982397;89;27487;-62
2021/06/21 06:23:17;;;;;;;11.18;8.73;;;;;;;38.31;33.06;99405.11;1983925;89;28783;-62
2021/06/21 06:26:19;;;;;;;12.35;8.20;;;;;;;38.79;32.37;99403.89;1998851;87;31095;-63
2021/06/21 06:29:21;;;;;;;14.70;8.55;;;;;;;39.12;31.94;99410.73;1995767;89;33006;-62
2021/06/21 06:32:23;;;;;;;12.47;8.35;;;;;;;39.44;31.04;99402.44;1999520;88;29325;-61
2021/06/21 06:35:25;;;;;;;15.23;7.97;;;;;;;39.66;30.75;99402.56;1966639;90;27574;-62
2021/06/21 06:38:27;;;;;;;12.73;8.50;;;;;;;39.88;30.23;99403.53;1922293;92;28885;-62
2021/06/21 06:41:29;;;;;;;14.47;8.28;;;;;;;40.10;29.66;99398.83;1956017;90;31102;-62
2021/06/21 06:44:31;;;;;;;16.10;7.97;;;;;;;40.25;29.50;99402.08;1922495;92;32823;-63
2021/06/21 06:47:32;;;;;;;14.53;7.65;;;;;;;40.55;29.32;99402.02;1952125;89;29550;-62
2021/06/21 06:50:34;;;;;;;15.60;8.05;;;;;;;40.88;28.89;99405.59;1955082;91;27526;-62
2021/06/21 06:53:42;;;;;;;13.13;8.90;;;;;;;41.08;28.46;99408.71;1968456;89;28719;-61
2021/06/21 06:57:03;;;;;;;17.62;8.60;;;;;;;41.12;27.94;99406.39;2005256;87;31825;-62
2021/06/21 07:00:01;;;;;;;17.07;8.93;;;;;;;41.25;27.78;99407.62;1982593;87;34089;-63
2021/06/21 07:03:08;;;;;;;12.73;8.10;;;;;;;41.44;27.33;99403.41;1983106;89;29350;-63
2021/06/21 07:06:12;;;;;;;11.33;9.65;;;;;;;41.60;27.11;99400.39;1995322;87;27522;-64
2021/06/21 07:09:15;;;;;;;12.82;7.90;;;;;;;41.62;26.53;99393.86;2026427;87;29701;-63
2021/06/21 07:12:17;;;;;;;11.03;9.23;;;;;;;41.62;26.75;99388.23;2026810;87;31360;-63
2021/06/21 07:15:19;;;;;;;11.65;8.03;;;;;;;41.70;26.47;99388.95;2026838;87;32660;-64
2021/06/21 07:18:21;;;;;;;19.95;8.88;;;;;;;41.82;26.53;99394.10;2026828;87;29406;-63
2021/06/21 07:21:22;;;;;;;10.90;8.78;;;;;;;41.94;26.46;99388.58;2015034;87;27584;-64
2021/06/21 07:24:25;;;;;;;13.30;8.03;;;;;;;42.04;26.01;99375.72;1954055;91;28884;-63
2021/06/21 07:27:26;;;;;;;9.40;8.38;;;;;;;42.13;25.94;99381.47;1956512;90;31067;-61
2021/06/21 07:30:30;;;;;;;10.50;9.30;;;;;;;42.23;25.62;99391.14;1994478;89;33004;-61
2021/06/21 07:33:32;;;;;;;18.37;8.65;;;;;;;42.14;25.47;99382.58;1994598;87;29435;-61
2021/06/21 07:36:34;;;;;;;16.20;8.30;;;;;;;42.21;24.96;99380.17;1976638;89;27640;-61
2021/06/21 07:39:36;;;;;;;14.13;8.20;;;;;;;42.12;25.47;99384.02;1984166;89;29252;-62
2021/06/21 07:42:37;;;;;;;14.53;8.08;;;;;;;42.24;25.06;99381.55;1959608;90;31002;-61
2021/06/21 07:45:41;;;;;;;12.85;8.70;;;;;;;42.25;24.83;99386.59;1985852;89;33031;-61
2021/06/21 07:48:42;;;;;;;12.85;8.98;;;;;;;42.19;24.67;99385.31;1981240;89;29384;-61
2021/06/21 07:51:44;;;;;;;10.88;7.85;;;;;;;42.08;24.77;99390.02;1959533;90;27619;-62
2021/06/21 07:54:46;;;;;;;13.05;8.90;;;;;;;41.94;25.25;99391.39;1959705;90;28725;-62
2021/06/21 07:57:48;;;;;;;10.95;8.75;;;;;;;42.05;25.26;99388.64;1959588;90;31957;-62
2021/06/21 08:00:50;;;;;;;13.88;8.83;;;;;;;42.20;25.07;99379.91;1972372;89;33065;-61
2021/06/21 08:03:53;;;;;;;10.98;8.05;;;;;;;42.12;24.69;99351.65;1965687;89;29513;-62
2021/06/21 08:06:55;;;;;;;10.23;8.83;;;;;;;42.12;24.69;99351.65;1998143;89;27745;-63
2021/06/21 08:09:56;;;;;;;12.28;8.15;;;;;;;41.88;24.47;99379.37;1978633;89;28789;-65
2021/06/21 08:12:58;;;;;;;15.50;8.90;;;;;;;41.74;25.26;99385.80;1999518;89;31977;-61
2021/06/21 08:16:00;;;;;;;11.73;8.85;;;;;;;41.77;24.80;99380.11;1999501;89;32949;-60
2021/06/21 08:19:01;;;;;;;12.65;8.58;;;;;;;41.89;25.07;99376.23;1992275;89;29571;-63
2021/06/21 08:22:04;;;;;;;14.60;8.75;;;;;;;41.91;24.85;99371.72;1958639;89;27565;-62
2021/06/21 08:25:07;;;;;;;11.73;8.60;;;;;;;41.86;24.99;99373.21;2000008;89;28739;-65
2021/06/21 08:28:09;;;;;;;;;;;;;;;41.68;24.71;99368.73;2002140;89;31019;-63
2021/06/21 08:31:11;;;;;;;9.35;8.03;;;;;;;41.45;25.21;99375.53;2029030;87;33049;-63
2021/06/21 08:34:12;;;;;;;10.70;9.03;;;;;;;41.38;25.11;99377.92;1983824;89;29393;-62
2021/06/21 08:37:14;;;;;;;14.83;9.20;;;;;;;41.04;25.27;99378.95;2032711;87;27758;-63
2021/06/21 08:40:16;;;;;;;11.33;9.03;;;;;;;40.87;25.19;99375.27;2032993;87;28494;-63
2021/06/21 08:43:18;;;;;;;11.55;8.80;;;;;;;40.56;25.61;99376.47;2018457;87;31167;-64
2021/06/21 08:46:20;;;;;;;9.88;8.60;;;;;;;40.43;25.87;99379.14;2010170;87;33021;-64
2021/06/21 08:49:21;;;;;;;8.38;7.58;;;;;;;40.29;25.86;99372.03;2041682;87;30288;-65
2021/06/21 08:52:26;;;;;;;12.45;8.98;;;;;;;40.37;26.35;99372.21;2033508;87;27516;-64
2021/06/21 08:55:28;;;;;;;13.55;8.73;;;;;;;40.62;26.13;99380.62;2041308;86;29565;-63
2021/06/21 08:58:29;;;;;;;17.98;10.13;;;;;;;40.62;25.95;99375.01;2006770;87;30995;-61
2021/06/21 09:01:33;;;;;;;8.45;7.70;;;;;;;40.43;26.13;99378.59;1988667;89;33006;-62
2021/06/21 09:04:38;;;;;;;9.15;8.05;;;;;;;40.44;25.80;99370.45;2003092;87;30177;-66
2021/06/21 09:07:40;;;;;;;12.00;8.43;;;;;;;40.47;26.21;99367.59;2006174;87;27950;-65
2021/06/21 09:10:42;;;;;;;11.45;8.43;;;;;;;40.62;26.47;99366.00;2008934;88;29593;-66
2021/06/21 09:13:44;;;;;;;12.28;7.80;;;;;;;40.79;26.15;99364.11;2008229;88;31049;-67
2021/06/21 09:16:46;;;;;;;11.33;8.40;;;;;;;40.69;25.75;99357.23;2008892;88;33575;-68
2021/06/21 09:19:56;;;;;;;10.03;7.47;;;;;;;40.54;25.86;99356.27;1952854;91;30629;-67
2021/06/21 09:23:03;;;;;;;11.40;7.50;;;;;;;40.49;25.42;99352.70;1982233;89;27587;-67
2021/06/21 09:26:21;;;;;;;13.75;7.65;;;;;;;40.42;26.13;99350.26;1981838;89;28866;-68
2021/06/21 09:29:39;;;;;;;9.20;6.67;;;;;;;40.46;26.17;99352.70;1995029;89;31023;-64
2021/06/21 09:32:48;;;;;;;14.07;7.95;;;;;;;40.40;25.54;99342.70;1999964;89;32942;-67
2021/06/21 09:35:51;;;;;;;11.88;7.72;;;;;;;40.29;25.67;99345.37;2000232;88;43801;-67
2021/06/21 09:39:18;;;;;;;9.00;8.10;;;;;;;40.06;25.37;99344.43;1976041;89;27711;-67
2021/06/21 09:42:23;;;;;;;8.73;7.80;;;;;;;39.80;25.67;99341.91;1924013;92;28767;-66
2021/06/21 09:45:26;;;;;;;13.78;7.87;;;;;;;39.60;26.00;99345.70;1957585;91;31030;-67
2021/06/21 09:48:49;;;;;;;9.78;8.73;;;;;;;39.28;26.05;99338.64;1924241;92;33030;-66
2021/06/21 09:51:51;;;;;;;15.90;9.10;;;;;;;38.95;26.38;99333.25;1954475;90;29651;-66
2021/06/21 09:54:53;;;;;;;11.60;8.65;;;;;;;38.57;26.78;99333.13;1949477;91;27545;-67
2021/06/21 09:58:12;;;;;;;11.20;8.33;;;;;;;38.27;27.07;99325.11;1982117;89;28745;-65
2021/06/21 10:01:14;;;;;;;9.73;8.05;;;;;;;38.07;27.50;99335.80;1982121;89;31010;-65
2021/06/21 10:04:25;;;;;;;11.88;8.73;;;;;;;37.76;27.75;99323.25;1934492;90;32943;-67
2021/06/21 10:07:33;;;;;;;11.22;8.38;;;;;;;37.67;28.18;99317.93;1957847;89;29414;-66
2021/06/21 10:10:36;;;;;;;11.88;8.85;;;;;;;37.52;28.52;99313.20;1985515;89;27542;-66
2021/06/21 10:13:37;;;;;;;11.53;8.28;;;;;;;37.29;28.63;99312.61;1985240;89;28736;-66
2021/06/21 10:16:40;;;;;;;12.18;8.73;;;;;;;37.09;29.11;99310.64;2010485;87;32128;-66
2021/06/21 10:19:42;;;;;;;11.80;8.03;;;;;;;37.00;28.79;99308.09;2026681;87;32954;-66
2021/06/21 10:22:44;;;;;;;11.48;9.05;;;;;;;36.80;29.12;99306.36;2002668;87;30105;-66
2021/06/21 10:25:46;;;;;;;8.68;7.95;;;;;;;36.68;29.12;99296.55;2014282;87;27743;-67
2021/06/21 10:28:50;;;;;;;10.20;7.72;;;;;;;36.58;29.28;99291.23;1985491;89;28590;-65
2021/06/21 10:32:10;;;;;;;8.45;6.33;;;;;;;36.46;29.76;99294.25;1985635;89;27502;-66
2021/06/21 10:35:12;;;;;;;11.22;5.92;;;;;;;36.30;28.83;99291.08;2012105;87;32943;-66
2021/06/21 10:38:16;;;;;;;9.27;4.87;;;;;;;36.15;28.71;99274.56;2011900;87;29316;-66
2021/06/21 10:41:18;;;;;;;5.30;4.80;;;;;;;36.02;27.45;99280.64;1987763;87;27616;-66
2021/06/21 10:44:43;;;;;;;5.90;5.50;;;;;;;35.93;27.52;99276.09;1984952;89;28656;-64
2021/06/21 10:47:48;;;;;;;6.35;4.58;;;;;;;36.00;28.31;99280.06;1976840;89;30563;-66
2021/06/21 10:50:52;;;;;;;6.50;5.05;;;;;;;35.89;27.86;99280.53;2001566;87;33047;-65
2021/06/21 10:53:54;;;;;;;5.03;4.62;;;;;;;35.79;27.59;99277.69;2026235;87;28825;-64
2021/06/21 10:56:58;;;;;;;4.97;4.45;;;;;;;35.68;27.00;99267.02;2006545;87;27622;-63
2021/06/21 11:00:14;;;;;;;8.18;4.42;;;;;;;35.63;26.71;99264.19;1961742;90;29431;-66
2021/06/21 11:03:35;;;;;;;8.78;4.37;;;;;;;35.47;26.63;99254.34;1990973;89;30817;-65
2021/06/21 11:06:35;;;;;;;5.75;3.95;;;;;;;35.36;26.59;99260.91;1960548;90;33569;-63
2021/06/21 11:09:49;;;;;;;4.97;4.47;;;;;;;35.34;26.99;99268.13;1994920;89;29356;-67
2021/06/21 11:12:51;;;;;;;8.60;4.75;;;;;;;35.29;26.95;99263.92;2029861;87;27515;-64
2021/06/21 11:16:20;;;;;;;5.95;5.05;;;;;;;35.26;26.54;99269.45;2006490;87;29562;-64
2021/06/21 11:19:27;;;;;;;8.50;6.03;;;;;;;35.20;26.95;99263.58;1982619;89;31102;-65
2021/06/21 11:22:46;;;;;;;4.62;4.22;;;;;;;35.21;27.55;99261.61;1993688;89;33911;-65
2021/06/21 11:25:49;;;;;;;6.00;5.08;;;;;;;35.25;27.83;99255.23;2016949;87;29337;-66
2021/06/21 11:28:51;;;;;;;6.97;4.65;;;;;;;35.31;27.71;99264.50;2038590;87;36629;-65
2021/06/21 11:32:00;;;;;;;7.22;5.35;;;;;;;35.36;27.91;99263.13;2038260;87;29445;-65
2021/06/21 11:35:04;;;;;;;10.75;6.12;;;;;;;35.34;27.80;99263.12;2035387;87;31037;-65
2021/06/21 11:38:26;;;;;;;;;;;;;;;35.25;28.18;99264.98;2040749;87;33061;-65
2021/06/21 11:41:29;;;;;;;7.08;5.45;;;;;;;35.17;27.77;99266.88;1989033;87;30223;-67
2021/06/21 11:44:40;;;;;;;;;;;;;;;35.02;27.93;99260.61;1995521;87;27617;-65
2021/06/21 11:47:45;;;;;;;6.92;5.80;;;;;;;34.86;28.15;99262.39;2029904;87;29346;-65
2021/06/21 11:50:48;;;;;;;10.23;6.15;;;;;;;34.68;28.56;99256.09;2029461;87;31237;-66
2021/06/21 11:53:49;;;;;;;6.80;6.12;;;;;;;34.56;28.48;99250.38;2027194;87;33837;-66
2021/06/21 11:56:59;;;;;;;8.03;6.08;;;;;;;34.42;28.26;99241.05;2029920;87;29318;-65
2021/06/21 12:00:05;;;;;;;6.75;5.90;;;;;;;34.36;28.54;99244.83;2030131;87;27524;-65
2021/06/21 12:03:07;;;;;;;;;;;;;;;34.32;28.44;99234.78;2029554;87;29790;-65
2021/06/21 12:06:15;;;;;;;6.33;5.25;;;;;;;34.27;27.75;99231.94;2029873;87;30997;-65
2021/06/21 12:09:17;;;;;;;5.37;4.87;;;;;;;34.23;27.98;99209.38;2022579;87;32379;-65
2021/06/21 12:12:31;;;;;;;6.78;4.92;;;;;;;34.23;27.67;99208.56;1956580;89;29401;-64
2021/06/21 12:15:34;;;;;;;;;;;;;;;34.19;28.40;99190.14;1959578;87;27629;-64
2021/06/21 12:18:35;;;;;;;6.67;5.47;;;;;;;34.23;28.82;99189.09;2003342;87;29551;-64
2021/06/21 12:21:46;;;;;;;7.05;6.10;;;;;;;34.19;28.84;99173.47;2014116;88;31880;-65
2021/06/21 12:24:48;;;;;;;8.30;5.62;;;;;;;34.18;28.97;99166.79;2014099;88;33081;-65
2021/06/21 12:27:51;;;;;;;8.15;4.10;;;;;;;34.18;29.28;99165.40;1995257;87;29236;-65
2021/06/21 12:30:57;;;;;;;9.90;5.70;;;;;;;34.16;28.13;99173.16;1954512;91;27610;-64
2021/06/21 12:33:59;;;;;;;6.30;5.60;;;;;;;34.11;28.59;99183.67;1953993;91;28828;-63
2021/06/21 12:37:12;;;;;;;9.93;6.25;;;;;;;34.08;29.07;99178.63;2008907;87;31101;-65
2021/06/21 12:40:17;;;;;;;12.23;5.87;;;;;;;34.03;29.13;99175.77;2018645;87;33666;-64
2021/06/21 12:43:19;;;;;;;8.15;5.25;;;;;;;33.97;29.60;99190.16;2027030;87;29457;-64
2021/06/21 12:46:25;;;;;;;6.62;6.03;;;;;;;33.89;29.89;99210.08;2016954;87;27465;-64
2021/06/21 12:49:27;;;;;;;8.93;6.33;;;;;;;33.82;29.98;99220.49;1954223;90;28105;-64
2021/06/21 12:52:29;;;;;;;11.50;5.97;;;;;;;33.78;30.12;99231.28;1954275;91;31057;-64
2021/06/21 12:55:31;;;;;;;15.85;7.92;;;;;;;33.80;30.37;99233.27;1988757;89;33701;-64
2021/06/21 12:58:33;;;;;;;12.20;9.33;;;;;;;33.86;30.78;99224.45;1957014;89;30175;-64
2021/06/21 13:01:37;;;;;;;11.88;7.87;;;;;;;33.93;31.06;99220.41;1956201;91;27634;-65
2021/06/21 13:04:38;;;;;;;9.63;7.22;;;;;;;33.95;31.08;99220.14;1956537;91;28745;-64
2021/06/21 13:07:41;;;;;;;9.43;7.47;;;;;;;34.06;31.42;99239.19;1979644;89;31111;-65
2021/06/21 13:10:43;;;;;;;9.20;6.40;;;;;;;34.16;31.44;99239.34;1970880;88;33150;-65
2021/06/21 13:13:48;;;;;;;9.68;6.80;;;;;;;34.31;31.53;99242.84;1974034;90;29464;-65
2021/06/21 13:16:51;;;;;;;7.53;6.40;;;;;;;34.45;31.60;99244.71;1920713;92;27588;-65
2021/06/21 13:19:57;;;;;;;7.67;6.00;;;;;;;34.58;31.72;99247.64;1957810;90;28650;-65
2021/06/21 13:23:00;;;;;;;10.35;6.10;;;;;;;34.68;31.51;99249.13;1924116;92;31022;-64
2021/06/21 13:26:02;;;;;;;18.37;7.03;;;;;;;34.78;31.98;99270.66;1962739;89;32942;-65
2021/06/21 13:29:29;;;;;;;22.07;6.22;;;;;;;34.60;32.33;99269.05;2000601;89;29556;-66
2021/06/21 13:32:33;;;;;;;18.55;6.85;;;;;;;34.40;32.95;99293.27;2000272;89;27566;-64
2021/06/21 13:35:34;;;;;;;;;;;;;;;34.09;33.30;99314.55;1976397;89;28595;-65
2021/06/21 13:38:36;;;;;;;8.53;5.83;;;;;;;33.76;33.93;99317.64;1957670;90;31031;-64
2021/06/21 13:41:42;;;;;;;16.57;5.60;;;;;;;33.32;34.21;99318.84;1923875;92;30735;-64
2021/06/21 13:44:56;;;;;;;13.18;5.60;;;;;;;32.90;34.71;99331.69;1926678;90;29351;-64
2021/06/21 13:48:17;;;;;;;9.90;5.40;;;;;;;32.58;35.31;99348.21;1923687;92;27493;-64
2021/06/21 13:51:25;;;;;;;10.65;5.72;;;;;;;32.30;35.85;99360.08;1923922;92;28738;-64
2021/06/21 13:54:28;;;;;;;10.20;5.60;;;;;;;32.05;36.29;99362.55;1969384;89;31225;-64
2021/06/21 13:57:39;;;;;;;14.15;6.37;;;;;;;31.86;36.87;99395.90;2000457;88;33071;-64
2021/06/21 14:00:49;;;;;;;16.00;6.15;;;;;;;31.71;37.22;99392.75;2000226;89;29408;-64
2021/06/21 14:03:54;;;;;;;12.63;5.97;;;;;;;31.57;37.82;99398.47;1997748;89;27506;-64
2021/06/21 14:06:58;;;;;;;8.28;6.08;;;;;;;31.38;38.23;99389.38;1923984;92;28916;-64
2021/06/21 14:09:59;;;;;;;22.97;7.23;;;;;;;31.16;38.75;99397.36;1937705;89;31882;-65
2021/06/21 14:13:01;;;;;;;22.87;8.68;;;;;;;30.91;39.22;99431.51;1994232;89;32976;-65
2021/06/21 14:16:07;;;;;;;32.48;8.55;;;;;;;30.55;41.19;99440.94;2025621;87;30201;-65
2021/06/21 14:19:12;;;;;;;23.50;9.58;;;;;;;30.19;43.79;99455.00;1966879;89;27637;-65
2021/06/21 14:22:16;;;;;;;11.35;5.40;;;;;;;29.75;44.43;99415.38;2008433;87;28646;-64
2021/06/21 14:25:20;;;;;;;18.00;7.78;;;;;;;29.05;43.40;99417.06;2037955;87;28019;-66
2021/06/21 14:28:23;;;;;;;13.20;7.92;;;;;;;28.28;47.08;99397.90;2038200;87;33027;-64